Lantana, FL

5:13 PM EST on March 06, 2015 (GMT -0500)
Lantana | Change Station
CLOSE
Current Station
Personal Weather Station
Location: Lantana, FL
Elevation: 16 ft
Nearby Weather Stations

Elev 16 ft 26.58 °N, 80.06 °W | Updated 3 minutes ago

Partly Cloudy
Partly Cloudy
74.9 °F
Feels Like 75 °F
N
6.0
Wind Variable Wind from NNE
Gusts 6.0 mph

Today
High -- | Low -- °F
--% Chance of Precip.
Yesterday
High -- | Low -- °F
Precip. -- in
6:39 AM 6:24 PM
Full, 99% visible
Pressure 30.14 in
Visibility 10.0 miles
Clouds Few 1800 ft
Scattered Clouds 4500 ft
Mostly Cloudy 6500 ft
Heat Index 75 °F
Dew Point 69 °F
Humidity 81%
Rainfall in
Snow Depth Not available.
UV 1 out of 12
Pollen 9.90 out of 12
Air Quality Not available.
Flu Activity Not available.
METAR KPBI 062153Z 02008KT 10SM FEW018 SCT045CB BKN065 26/21 A3014 RMK AO2 SLP204 CB S-SW MOV SE T02560206

More Conditions Fewer Conditions

Pressure 30.14 in
Visibility 10.0 miles
Clouds Few 1800 ft
Scattered Clouds 4500 ft
Mostly Cloudy 6500 ft
Heat Index 75 °F
Dew Point 69 °F
Humidity 81%
Rainfall in
Snow Depth Not available.
UV 1 out of 12
Pollen 9.90 out of 12
Air Quality Not available.
Flu Activity Not available.
METAR KPBI 062153Z 02008KT 10SM FEW018 SCT045CB BKN065 26/21 A3014 RMK AO2 SLP204 CB S-SW MOV SE T02560206

More Conditions Fewer Conditions

Nowcast | as of 3:56 PM EST on March 6, 2015

Widely scattered mainly light to moderate showers continue to develop across mostly the interior this afternoon. A brief heavy downpour will be possible with any of the heavier showers. Hourly rainfall amounts will generally be less than a tenth of an inch.

×

10-Day Weather Forecast

Almanac

Astronomy

Mar. 06, 2015 Rise Set
Actual Time
Civil Twilight
Nautical Twilight
Astronomical Twilight
Moon
Length of Visible Light
Length of Day
Tomorrow will be .
, % of the Moon is Illuminated

Today's Extremes

State Highs State Lows

Community

WunderPhotos

Upload Photos

1,803,420 photos uploaded!

WunderBlogs® & News

Nearby

Air Quality

  Air Quality AQ Index Pollutant
Not available.

Snow Depth

Station Depth Elevation

Earthquake Activity

City Distance Mag. Time & Date
Minimum magnitude displayed is 2.5.

Coastal Water Temperatures

Place Temperature

Nearby Weather Stations